createdAt,value
2023-10-06T00:00:20.237Z,80.36
2023-10-06T00:01:26.508Z,78.78
2023-10-06T00:02:32.294Z,78.47
2023-10-06T00:03:37.046Z,78.60
2023-10-06T00:04:42.673Z,78.92
2023-10-06T00:05:46.266Z,78.79
2023-10-06T00:06:49.927Z,78.85
2023-10-06T00:07:52.974Z,78.70
2023-10-06T00:08:58.555Z,78.55
2023-10-06T00:10:01.398Z,78.27
2023-10-06T00:11:13.228Z,78.15
2023-10-06T00:12:17.865Z,78.14
2023-10-06T00:13:25.005Z,77.59
2023-10-06T00:14:40.434Z,77.44
2023-10-06T00:15:45.312Z,76.60
2023-10-06T00:16:51.284Z,76.57
2023-10-06T00:18:01.636Z,76.83
2023-10-06T00:19:16.357Z,76.18
2023-10-06T00:20:28.040Z,75.88
2023-10-06T00:21:31.158Z,76.44
2023-10-06T00:22:37.131Z,75.07
2023-10-06T00:23:40.876Z,75.59
2023-10-06T00:24:56.545Z,76.09
2023-10-06T00:26:00.472Z,76.04
2023-10-06T00:27:04.747Z,75.15
2023-10-06T00:28:15.589Z,75.57
2023-10-06T00:29:22.996Z,75.15
2023-10-06T00:30:26.965Z,75.46
2023-10-06T00:31:33.207Z,75.94
2023-10-06T00:32:38.553Z,75.34
2023-10-06T00:33:43.671Z,74.89
2023-10-06T00:34:46.665Z,75.37
2023-10-06T00:35:49.911Z,75.84
2023-10-06T00:36:57.432Z,76.16
2023-10-06T00:38:06.096Z,76.41
2023-10-06T00:39:14.245Z,76.70
2023-10-06T00:40:21.395Z,76.71
2023-10-06T00:41:24.744Z,76.83
2023-10-06T00:42:28.476Z,76.97
2023-10-06T00:43:36.715Z,77.06
2023-10-06T00:44:41.148Z,76.92
2023-10-06T00:45:45.426Z,76.96
2023-10-06T00:46:49.159Z,77.22
2023-10-06T00:47:55.312Z,76.56
2023-10-06T00:49:01.024Z,76.98
2023-10-06T00:50:07.102Z,77.07
2023-10-06T00:51:23.600Z,76.66
2023-10-06T00:52:26.515Z,76.57
2023-10-06T00:53:33.218Z,77.41
2023-10-06T00:54:36.132Z,77.35
2023-10-06T00:55:41.002Z,77.33
2023-10-06T00:56:44.267Z,77.52
2023-10-06T00:57:54.654Z,78.17
2023-10-06T00:58:57.885Z,78.22
2023-10-06T01:00:00.716Z,78.37
2023-10-06T01:01:06.927Z,78.23
2023-10-06T01:02:13.119Z,78.45
2023-10-06T01:03:16.415Z,78.68
2023-10-06T01:04:20.506Z,78.46
2023-10-06T01:05:23.457Z,78.54
2023-10-06T01:06:34.984Z,78.84
2023-10-06T01:07:37.911Z,78.58
2023-10-06T01:08:42.566Z,78.16
2023-10-06T01:09:58.873Z,77.88
2023-10-06T01:11:12.850Z,77.71
2023-10-06T01:12:20.850Z,77.77
2023-10-06T01:13:24.097Z,78.17
2023-10-06T01:14:30.445Z,78.08
2023-10-06T01:15:33.253Z,77.87
2023-10-06T01:16:36.703Z,77.92
2023-10-06T01:17:40.125Z,78.24
2023-10-06T01:18:43.188Z,78.31
2023-10-06T01:19:50.191Z,78.08
2023-10-06T01:20:54.275Z,78.07
2023-10-06T01:21:57.624Z,78.05
2023-10-06T01:23:01.063Z,78.29
2023-10-06T01:24:13.270Z,78.17
2023-10-06T01:25:22.587Z,78.35
2023-10-06T01:26:26.162Z,78.66
2023-10-06T01:27:29.506Z,78.52
2023-10-06T01:28:36.483Z,78.54
2023-10-06T01:29:39.709Z,78.43
2023-10-06T01:30:42.563Z,78.43
2023-10-06T01:31:45.833Z,77.88
2023-10-06T01:32:52.992Z,77.93
2023-10-06T01:33:57.300Z,77.92
2023-10-06T01:35:00.346Z,78.00
2023-10-06T01:36:08.538Z,78.06
2023-10-06T01:37:11.560Z,78.20
2023-10-06T01:38:24.108Z,78.03
2023-10-06T01:39:31.928Z,78.08
2023-10-06T01:40:35.124Z,77.93
2023-10-06T01:41:38.218Z,77.99
2023-10-06T01:42:41.278Z,77.89
2023-10-06T01:43:46.458Z,77.93
2023-10-06T01:44:49.556Z,77.87
2023-10-06T01:45:53.084Z,77.90
2023-10-06T01:46:56.457Z,78.10
2023-10-06T01:48:14.400Z,78.04
2023-10-06T01:49:17.444Z,78.05
2023-10-06T01:50:20.517Z,77.98
2023-10-06T01:51:24.100Z,77.55
2023-10-06T01:52:27.270Z,77.89
2023-10-06T01:53:34.603Z,77.68
2023-10-06T01:54:38.064Z,77.89
2023-10-06T01:55:40.943Z,78.30
2023-10-06T01:56:43.840Z,77.79
2023-10-06T01:57:49.190Z,77.77
2023-10-06T01:58:52.660Z,77.69
2023-10-06T01:59:55.362Z,77.68
2023-10-06T02:00:58.407Z,77.91
2023-10-06T02:02:09.462Z,77.60
2023-10-06T02:03:13.008Z,77.36
2023-10-06T02:04:16.130Z,77.70
2023-10-06T02:05:18.914Z,78.09
2023-10-06T02:06:21.918Z,77.68
2023-10-06T02:07:24.926Z,77.54
2023-10-06T02:08:27.949Z,77.55
2023-10-06T02:09:31.558Z,77.93
2023-10-06T02:10:34.596Z,78.19
2023-10-06T02:11:37.439Z,78.28
2023-10-06T02:12:40.812Z,78.42
2023-10-06T02:13:43.872Z,78.62
2023-10-06T02:14:49.372Z,78.52
2023-10-06T02:16:00.601Z,78.20
2023-10-06T02:17:07.131Z,78.39
2023-10-06T02:18:13.940Z,78.58
2023-10-06T02:19:19.898Z,78.64
2023-10-06T02:20:25.849Z,78.67
2023-10-06T02:21:30.513Z,78.75
2023-10-06T02:22:33.583Z,78.96
2023-10-06T02:23:41.780Z,79.22
2023-10-06T02:24:46.655Z,78.87
2023-10-06T02:25:49.691Z,78.96
2023-10-06T02:27:02.897Z,79.10
2023-10-06T02:28:07.228Z,79.27
2023-10-06T02:29:19.178Z,79.47
2023-10-06T02:30:36.991Z,79.82
2023-10-06T02:31:42.798Z,80.08
2023-10-06T02:32:46.807Z,80.21
2023-10-06T02:33:50.504Z,80.02
2023-10-06T02:34:54.090Z,80.17
2023-10-06T02:36:00.263Z,80.22
2023-10-06T02:37:05.938Z,80.27
2023-10-06T02:38:08.972Z,80.14
2023-10-06T02:39:17.422Z,80.09
2023-10-06T02:40:30.900Z,80.35
2023-10-06T02:41:35.571Z,80.52
2023-10-06T02:42:46.451Z,80.32
2023-10-06T02:43:51.281Z,80.17
2023-10-06T02:44:55.296Z,80.42
2023-10-06T02:46:05.926Z,80.75
2023-10-06T02:47:13.324Z,80.74
2023-10-06T02:48:16.571Z,80.34
2023-10-06T02:49:33.349Z,80.30
2023-10-06T02:50:37.717Z,80.14
2023-10-06T02:51:50.072Z,78.81
2023-10-06T02:52:56.208Z,78.51
2023-10-06T02:54:18.949Z,78.37
2023-10-06T02:55:22.676Z,78.56
2023-10-06T02:56:30.190Z,79.54
2023-10-06T02:57:37.079Z,79.92
2023-10-06T02:58:42.735Z,80.18
2023-10-06T02:59:46.144Z,80.40
2023-10-06T03:00:51.826Z,80.40
2023-10-06T03:01:59.189Z,80.65
2023-10-06T03:03:13.585Z,80.96
2023-10-06T03:04:18.723Z,81.02
2023-10-06T03:05:22.620Z,80.96
2023-10-06T03:06:25.698Z,81.15
2023-10-06T03:07:28.744Z,81.32
2023-10-06T03:08:31.609Z,81.47
2023-10-06T03:09:45.762Z,81.27
2023-10-06T03:10:49.947Z,81.26
2023-10-06T03:11:52.927Z,81.17
2023-10-06T03:12:58.523Z,81.24
2023-10-06T03:14:02.073Z,81.49
2023-10-06T03:15:10.687Z,81.65
2023-10-06T03:16:13.618Z,81.45
2023-10-06T03:18:24.268Z,81.68
2023-10-06T03:19:29.202Z,81.84
2023-10-06T03:20:51.371Z,81.92
2023-10-06T03:22:00.379Z,82.95
2023-10-06T03:23:14.933Z,83.00
2023-10-06T03:24:32.239Z,82.81
2023-10-06T03:25:37.060Z,83.54
2023-10-06T03:26:45.569Z,83.52
2023-10-06T03:27:55.835Z,83.68
2023-10-06T03:29:04.059Z,83.95
2023-10-06T03:30:12.889Z,84.58
2023-10-06T03:31:18.806Z,84.64
2023-10-06T03:32:50.498Z,84.84
2023-10-06T03:33:56.272Z,85.57
2023-10-06T03:35:07.196Z,86.26
2023-10-06T03:36:10.935Z,86.49
2023-10-06T03:37:17.845Z,86.91
2023-10-06T03:38:20.897Z,87.30
2023-10-06T03:39:29.328Z,87.52
2023-10-06T03:40:37.405Z,87.69
2023-10-06T03:41:45.543Z,87.74
2023-10-06T03:42:49.120Z,87.62
2023-10-06T03:43:54.624Z,87.42
2023-10-06T03:45:07.593Z,87.50
2023-10-06T03:46:13.608Z,87.20
2023-10-06T03:47:16.864Z,86.74
2023-10-06T03:48:20.975Z,86.36
2023-10-06T03:49:24.262Z,85.24
2023-10-06T03:50:28.555Z,85.28
2023-10-06T03:51:39.260Z,85.32
2023-10-06T03:52:42.141Z,85.17
2023-10-06T03:53:52.061Z,84.39
2023-10-06T03:54:59.912Z,84.41
2023-10-06T03:56:02.958Z,84.59
2023-10-06T03:57:06.028Z,84.64
2023-10-06T03:58:10.809Z,84.68
2023-10-06T03:59:17.045Z,84.64
2023-10-06T04:00:20.806Z,84.26
2023-10-06T04:01:32.600Z,84.27
2023-10-06T04:02:42.060Z,84.06
2023-10-06T04:03:45.344Z,83.93
2023-10-06T04:04:51.303Z,83.95
2023-10-06T04:05:54.154Z,84.11
2023-10-06T04:06:59.798Z,83.86
2023-10-06T04:08:08.975Z,83.62
2023-10-06T04:09:13.052Z,83.74
2023-10-06T04:10:16.656Z,83.93
2023-10-06T04:11:20.496Z,83.79
2023-10-06T04:12:23.742Z,83.44
2023-10-06T04:13:27.491Z,82.97
2023-10-06T04:14:33.195Z,82.75
2023-10-06T04:15:47.462Z,81.78
2023-10-06T04:16:52.177Z,81.82
2023-10-06T04:17:55.369Z,81.98
2023-10-06T04:18:58.477Z,82.05
2023-10-06T04:20:06.340Z,81.79
2023-10-06T04:21:12.771Z,82.42
2023-10-06T04:22:16.244Z,81.08
2023-10-06T04:23:20.057Z,80.61
2023-10-06T04:24:23.262Z,80.16
2023-10-06T04:25:26.186Z,79.88
2023-10-06T04:26:29.205Z,79.83
2023-10-06T04:27:34.483Z,78.47
2023-10-06T04:28:38.436Z,78.76
2023-10-06T04:29:42.280Z,78.99
2023-10-06T04:30:46.542Z,79.51
2023-10-06T04:31:50.451Z,79.89
2023-10-06T04:32:54.890Z,80.15
2023-10-06T04:33:59.443Z,80.08
2023-10-06T04:35:02.214Z,79.93
2023-10-06T04:36:13.194Z,80.15
2023-10-06T04:37:18.572Z,80.53
2023-10-06T04:38:21.645Z,80.29
2023-10-06T04:39:25.018Z,79.84
2023-10-06T04:40:29.155Z,80.32
2023-10-06T04:41:31.933Z,80.70
2023-10-06T04:42:35.272Z,81.09
2023-10-06T04:43:39.127Z,80.61
2023-10-06T04:44:42.756Z,79.44
2023-10-06T04:45:46.588Z,80.23
2023-10-06T04:46:51.930Z,80.27
2023-10-06T04:47:57.287Z,80.22
2023-10-06T04:49:00.454Z,80.41
2023-10-06T04:50:04.072Z,80.73
2023-10-06T04:51:10.532Z,80.64
2023-10-06T04:52:13.429Z,80.39
2023-10-06T04:53:18.163Z,80.55
2023-10-06T04:54:21.590Z,80.75
2023-10-06T04:55:24.630Z,81.22
2023-10-06T04:56:33.920Z,81.43
2023-10-06T04:57:36.653Z,81.56
2023-10-06T04:58:43.835Z,82.24
2023-10-06T04:59:46.948Z,82.98
2023-10-06T05:00:54.812Z,83.05
2023-10-06T05:01:57.919Z,83.52
2023-10-06T05:03:04.788Z,83.38
2023-10-06T05:04:10.696Z,83.91
2023-10-06T05:05:14.836Z,84.73
2023-10-06T05:06:19.257Z,84.62
2023-10-06T05:07:22.753Z,84.90
2023-10-06T05:08:26.204Z,84.80
2023-10-06T05:09:29.281Z,84.71
2023-10-06T05:10:33.389Z,84.64
2023-10-06T05:11:39.251Z,84.86
2023-10-06T05:12:44.075Z,85.08
2023-10-06T05:13:56.956Z,85.37
2023-10-06T05:15:00.279Z,86.14
2023-10-06T05:16:03.665Z,86.05
2023-10-06T05:17:06.422Z,86.03
2023-10-06T05:18:14.280Z,86.13
2023-10-06T05:19:16.907Z,86.12
2023-10-06T05:20:22.291Z,86.35
2023-10-06T05:21:25.377Z,86.56
2023-10-06T05:22:28.622Z,87.41
2023-10-06T05:23:32.241Z,87.29
2023-10-06T05:24:36.782Z,87.52
2023-10-06T05:25:40.721Z,87.61
2023-10-06T05:26:44.972Z,88.10
2023-10-06T05:27:48.810Z,88.27
2023-10-06T05:28:52.165Z,88.19
2023-10-06T05:29:56.097Z,88.12
2023-10-06T05:30:59.211Z,88.36
2023-10-06T05:32:02.678Z,88.63
2023-10-06T05:33:06.071Z,88.21
2023-10-06T05:34:09.992Z,88.38
2023-10-06T05:35:15.509Z,88.45
2023-10-06T05:36:21.236Z,88.77
2023-10-06T05:37:24.851Z,89.12
2023-10-06T05:38:27.857Z,89.09
2023-10-06T05:39:34.871Z,89.04
2023-10-06T05:40:38.228Z,89.16
2023-10-06T05:41:41.234Z,89.35
2023-10-06T05:42:44.814Z,89.80
2023-10-06T05:43:47.782Z,89.76
2023-10-06T05:44:50.648Z,89.89
2023-10-06T05:45:53.934Z,89.95
2023-10-06T05:46:57.125Z,89.93
2023-10-06T05:48:00.368Z,90.10
2023-10-06T05:49:04.992Z,90.10
2023-10-06T05:50:10.243Z,90.04
2023-10-06T05:51:16.722Z,90.08
2023-10-06T05:52:21.504Z,90.53
2023-10-06T05:53:24.632Z,90.76
2023-10-06T05:54:31.060Z,90.60
2023-10-06T05:55:36.593Z,90.46
2023-10-06T05:56:43.940Z,90.24
2023-10-06T05:57:57.238Z,89.84
2023-10-06T05:59:00.038Z,89.67
2023-10-06T06:00:02.720Z,89.43
2023-10-06T06:01:12.750Z,89.42
2023-10-06T06:02:17.511Z,89.41
2023-10-06T06:03:25.060Z,89.45
2023-10-06T06:04:29.127Z,88.75
2023-10-06T06:05:37.223Z,88.57
2023-10-06T06:06:41.568Z,88.61
2023-10-06T06:07:45.323Z,88.46
2023-10-06T06:08:52.517Z,88.40
2023-10-06T06:09:55.164Z,87.74
2023-10-06T06:10:58.498Z,87.59
2023-10-06T06:12:02.044Z,87.65
2023-10-06T06:13:05.538Z,87.64
2023-10-06T06:14:17.380Z,87.04
2023-10-06T06:15:21.671Z,86.83
2023-10-06T06:16:25.730Z,87.14
2023-10-06T06:17:28.853Z,87.75
2023-10-06T06:18:32.303Z,87.67
2023-10-06T06:19:35.246Z,87.94
2023-10-06T06:20:42.953Z,88.68
2023-10-06T06:21:50.207Z,87.78
2023-10-06T06:23:05.447Z,86.94
2023-10-06T06:24:08.580Z,86.88
2023-10-06T06:25:11.549Z,87.06
2023-10-06T06:26:18.653Z,87.69
2023-10-06T06:27:23.983Z,87.54
2023-10-06T06:28:27.269Z,86.28
2023-10-06T06:29:31.144Z,85.96
2023-10-06T06:30:38.420Z,85.80
2023-10-06T06:31:42.778Z,84.89
2023-10-06T06:32:51.927Z,83.97
2023-10-06T06:33:58.820Z,83.76
2023-10-06T06:35:03.115Z,84.01
2023-10-06T06:36:06.824Z,83.11
2023-10-06T06:37:14.484Z,83.71
2023-10-06T06:38:20.156Z,84.13
2023-10-06T06:39:24.467Z,83.80
2023-10-06T06:40:31.030Z,83.73
2023-10-06T06:41:34.575Z,83.83
2023-10-06T06:42:38.082Z,82.73
2023-10-06T06:43:46.908Z,82.70
2023-10-06T06:44:50.106Z,82.21
2023-10-06T06:45:55.182Z,81.34
2023-10-06T06:46:58.794Z,82.00
2023-10-06T06:48:04.652Z,81.90
2023-10-06T06:49:07.735Z,81.61
2023-10-06T06:50:16.971Z,81.81
2023-10-06T06:51:21.209Z,82.12
2023-10-06T06:52:24.006Z,83.01
2023-10-06T06:53:27.453Z,81.97
2023-10-06T06:54:37.998Z,81.90
2023-10-06T06:55:44.389Z,81.26
2023-10-06T06:56:50.838Z,80.35
2023-10-06T06:57:57.127Z,80.21
2023-10-06T06:59:01.360Z,81.15
2023-10-06T07:00:10.811Z,80.61
2023-10-06T07:01:16.392Z,80.09
2023-10-06T07:02:19.688Z,79.74
2023-10-06T07:03:22.683Z,77.09
2023-10-06T07:04:27.698Z,77.84
2023-10-06T07:05:31.494Z,78.01
2023-10-06T07:06:34.777Z,77.04
2023-10-06T07:07:38.702Z,76.78
2023-10-06T07:08:41.829Z,77.02
2023-10-06T07:09:44.876Z,76.74
2023-10-06T07:10:53.895Z,77.22
2023-10-06T07:11:56.694Z,76.30
2023-10-06T07:12:59.860Z,76.77
2023-10-06T07:14:02.725Z,76.78
2023-10-06T07:15:11.073Z,76.44
2023-10-06T07:16:16.035Z,75.88
2023-10-06T07:17:20.113Z,75.00
2023-10-06T07:18:25.251Z,75.25
2023-10-06T07:19:28.366Z,75.68
2023-10-06T07:20:31.825Z,75.95
2023-10-06T07:21:34.646Z,76.12
2023-10-06T07:22:37.923Z,74.42
2023-10-06T07:23:40.704Z,74.41
2023-10-06T07:24:43.396Z,74.36
2023-10-06T07:25:46.700Z,74.02
2023-10-06T07:26:51.560Z,72.33
2023-10-06T07:27:56.865Z,72.46
2023-10-06T07:29:00.901Z,72.44
2023-10-06T07:30:06.286Z,71.86
2023-10-06T07:31:11.265Z,71.68
2023-10-06T07:32:15.615Z,72.45
2023-10-06T07:33:18.434Z,72.45
2023-10-06T07:34:21.531Z,70.91
2023-10-06T07:35:47.489Z,71.04
2023-10-06T07:36:50.286Z,70.86
2023-10-06T07:37:53.865Z,71.73
2023-10-06T07:38:56.712Z,71.30
2023-10-06T07:40:04.366Z,71.72
2023-10-06T07:41:07.342Z,71.62
2023-10-06T07:42:10.328Z,70.56
2023-10-06T07:43:14.425Z,70.72
2023-10-06T07:44:17.373Z,71.28
2023-10-06T07:45:24.131Z,70.98
2023-10-06T07:46:28.255Z,70.86
2023-10-06T07:47:33.044Z,71.17
2023-10-06T07:48:38.033Z,70.97
2023-10-06T07:49:41.768Z,69.05
2023-10-06T07:50:45.513Z,69.52
2023-10-06T07:51:48.373Z,70.06
2023-10-06T07:52:52.503Z,70.27
2023-10-06T07:53:55.671Z,69.43
2023-10-06T07:54:58.597Z,65.85
2023-10-06T07:56:10.633Z,65.46
2023-10-06T07:57:14.264Z,63.92
2023-10-06T07:58:17.089Z,63.58
2023-10-06T07:59:20.343Z,64.70
2023-10-06T08:00:30.022Z,64.96
2023-10-06T08:01:36.373Z,64.61
2023-10-06T08:02:40.987Z,63.75
2023-10-06T08:03:44.702Z,62.26
2023-10-06T08:04:47.904Z,62.86
2023-10-06T08:05:50.641Z,61.69
2023-10-06T08:06:54.038Z,61.02
2023-10-06T08:08:00.056Z,61.78
2023-10-06T08:09:07.020Z,62.34
2023-10-06T08:10:15.315Z,61.28
2023-10-06T08:11:21.313Z,61.39
2023-10-06T08:12:25.760Z,60.86
2023-10-06T08:13:32.119Z,61.63
2023-10-06T08:14:35.116Z,62.11
2023-10-06T08:15:42.069Z,62.06
2023-10-06T08:16:47.317Z,62.00
2023-10-06T08:17:53.013Z,62.04
2023-10-06T08:18:56.075Z,61.01
2023-10-06T08:19:59.235Z,61.30
2023-10-06T08:21:02.595Z,60.79
2023-10-06T08:22:05.731Z,60.72
2023-10-06T08:23:08.847Z,57.48
2023-10-06T08:24:12.891Z,57.89
2023-10-06T08:25:16.493Z,58.69
2023-10-06T08:26:19.585Z,59.21
2023-10-06T08:27:25.428Z,59.05
2023-10-06T08:28:28.612Z,57.65
2023-10-06T08:29:33.937Z,58.26
2023-10-06T08:30:38.796Z,57.35
2023-10-06T08:31:41.663Z,56.70
2023-10-06T08:32:55.355Z,57.27
2023-10-06T08:34:05.769Z,58.05
2023-10-06T08:35:14.756Z,58.49
2023-10-06T08:36:18.384Z,58.38
2023-10-06T08:37:21.437Z,57.88
2023-10-06T08:38:25.749Z,57.09
2023-10-06T08:39:40.203Z,56.16
2023-10-06T08:40:43.616Z,54.06
2023-10-06T08:41:46.735Z,52.97
2023-10-06T08:42:52.757Z,53.48
2023-10-06T08:44:03.130Z,52.91
2023-10-06T08:45:06.966Z,53.40
2023-10-06T08:46:14.478Z,54.37
2023-10-06T08:47:29.171Z,54.06
2023-10-06T08:48:37.555Z,53.61
2023-10-06T08:49:47.844Z,53.47
2023-10-06T08:50:51.257Z,53.92
2023-10-06T08:51:55.511Z,53.80
2023-10-06T08:53:00.748Z,53.81
2023-10-06T08:54:06.556Z,53.79
2023-10-06T08:55:10.475Z,52.44
2023-10-06T08:56:16.928Z,52.54
2023-10-06T08:57:20.081Z,53.27
2023-10-06T08:58:22.958Z,53.44
2023-10-06T08:59:26.251Z,52.74
2023-10-06T09:00:33.129Z,53.24
2023-10-06T09:01:37.307Z,53.58
2023-10-06T09:02:42.850Z,54.01
2023-10-06T09:03:48.558Z,52.45
2023-10-06T09:04:52.325Z,50.96
2023-10-06T09:05:55.386Z,51.16
2023-10-06T09:07:09.931Z,50.71
2023-10-06T09:08:16.511Z,51.06
2023-10-06T09:09:30.050Z,49.23
2023-10-06T09:10:35.278Z,50.24
2023-10-06T09:11:40.134Z,51.62
2023-10-06T09:12:43.962Z,52.25
2023-10-06T09:13:47.254Z,52.38
2023-10-06T09:14:57.504Z,52.53
2023-10-06T09:16:10.073Z,52.49
2023-10-06T09:17:12.931Z,52.40
2023-10-06T09:18:23.238Z,52.78
2023-10-06T09:19:26.218Z,52.84
2023-10-06T09:20:37.991Z,51.25
2023-10-06T09:22:01.259Z,50.50
2023-10-06T09:23:05.678Z,51.18
2023-10-06T09:24:21.075Z,50.79
2023-10-06T09:25:24.089Z,51.40
2023-10-06T09:26:29.532Z,49.83
2023-10-06T09:27:38.624Z,49.82
2023-10-06T09:28:56.956Z,50.35
2023-10-06T09:30:01.853Z,51.02
2023-10-06T09:31:07.354Z,50.98
2023-10-06T09:32:23.250Z,50.50
2023-10-06T09:33:28.390Z,50.65
2023-10-06T09:34:34.134Z,50.48
2023-10-06T09:35:37.287Z,50.40
2023-10-06T09:36:45.788Z,50.91
2023-10-06T09:37:56.101Z,49.73
2023-10-06T09:39:04.452Z,50.05
2023-10-06T09:40:23.523Z,49.71
2023-10-06T09:41:30.315Z,49.88
2023-10-06T09:42:34.827Z,50.12
2023-10-06T09:43:41.836Z,50.38
2023-10-06T09:44:47.931Z,50.38
2023-10-06T09:45:53.428Z,50.73
2023-10-06T09:47:01.477Z,51.00
2023-10-06T09:48:10.768Z,51.04
2023-10-06T09:49:17.756Z,51.20
2023-10-06T09:50:21.879Z,51.82
2023-10-06T09:51:26.725Z,51.24
2023-10-06T09:52:34.862Z,51.34
2023-10-06T09:53:45.452Z,50.42
2023-10-06T09:54:49.475Z,50.55
2023-10-06T09:55:53.424Z,49.03
2023-10-06T09:56:56.977Z,50.04
2023-10-06T09:58:00.681Z,51.02
2023-10-06T09:59:09.162Z,51.67
2023-10-06T10:00:17.830Z,51.11
2023-10-06T10:01:25.724Z,51.18
2023-10-06T10:02:31.352Z,50.55
2023-10-06T10:03:36.690Z,50.31
2023-10-06T10:04:40.450Z,48.57
2023-10-06T10:05:43.521Z,48.51
2023-10-06T10:06:46.658Z,48.17
2023-10-06T10:07:50.478Z,48.69
2023-10-06T10:08:53.916Z,49.48
2023-10-06T10:09:58.761Z,47.71
2023-10-06T10:11:30.883Z,47.79
2023-10-06T10:13:21.248Z,48.64
2023-10-06T10:15:04.459Z,48.72
2023-10-06T10:16:11.120Z,48.23
2023-10-06T10:17:45.430Z,48.01
2023-10-06T10:18:57.926Z,48.45
2023-10-06T10:20:04.191Z,47.94
2023-10-06T10:21:13.403Z,48.28
2023-10-06T10:22:17.646Z,47.67
2023-10-06T10:23:21.845Z,46.10
2023-10-06T10:25:32.657Z,46.01
2023-10-06T10:26:40.457Z,46.58
2023-10-06T10:27:44.679Z,46.82
2023-10-06T10:29:19.182Z,46.53
2023-10-06T10:30:55.555Z,46.74
2023-10-06T10:32:04.347Z,46.77
2023-10-06T10:33:08.767Z,47.23
2023-10-06T10:36:21.590Z,46.96
2023-10-06T10:37:26.432Z,46.07
2023-10-06T10:38:29.178Z,46.53
2023-10-06T10:39:47.365Z,46.54
2023-10-06T10:40:51.328Z,47.03
2023-10-06T10:42:00.170Z,47.62
2023-10-06T10:43:07.838Z,47.09
2023-10-06T10:44:24.753Z,47.18
2023-10-06T10:45:52.067Z,47.49
2023-10-06T10:46:57.595Z,46.86
2023-10-06T10:48:01.009Z,47.04
2023-10-06T10:49:04.661Z,46.11
2023-10-06T10:50:08.484Z,45.60
2023-10-06T10:51:16.504Z,45.78
2023-10-06T10:52:22.225Z,45.68
2023-10-06T10:53:30.683Z,45.99
2023-10-06T10:54:38.027Z,46.41
2023-10-06T10:55:41.120Z,44.39
2023-10-06T10:56:51.114Z,44.47
2023-10-06T10:57:54.133Z,44.71
2023-10-06T10:58:58.215Z,45.18
2023-10-06T11:00:09.849Z,45.50
2023-10-06T11:01:33.660Z,44.49
2023-10-06T11:03:01.467Z,44.67
2023-10-06T11:04:16.620Z,44.19
2023-10-06T11:05:21.708Z,44.88
2023-10-06T11:06:25.136Z,46.15
2023-10-06T11:07:28.069Z,48.10
2023-10-06T11:08:40.581Z,46.69
2023-10-06T11:09:48.727Z,45.37
2023-10-06T11:10:59.794Z,44.55
2023-10-06T11:12:23.778Z,45.40
2023-10-06T11:13:37.215Z,45.76
2023-10-06T11:14:47.900Z,47.06
2023-10-06T11:15:51.192Z,47.21
2023-10-06T11:17:04.471Z,46.33
2023-10-06T11:18:07.728Z,46.51
2023-10-06T11:19:16.639Z,47.32
2023-10-06T11:20:28.713Z,48.29
2023-10-06T11:21:32.881Z,48.86
2023-10-06T11:22:36.049Z,49.31
2023-10-06T11:23:43.338Z,49.00
2023-10-06T11:24:49.177Z,47.46
2023-10-06T11:25:52.583Z,47.91
2023-10-06T11:26:56.054Z,47.71
2023-10-06T11:28:10.381Z,48.37
2023-10-06T11:29:13.896Z,48.82
2023-10-06T11:30:18.722Z,49.28
2023-10-06T11:31:21.832Z,49.93
2023-10-06T11:32:25.391Z,50.29
2023-10-06T11:33:28.500Z,51.01
2023-10-06T11:34:31.774Z,50.65
2023-10-06T11:35:35.850Z,50.44
2023-10-06T11:36:41.775Z,50.25
2023-10-06T11:37:44.826Z,50.18
2023-10-06T11:38:48.220Z,50.60
2023-10-06T11:39:55.250Z,49.95
2023-10-06T11:40:58.534Z,50.52
2023-10-06T11:42:23.632Z,49.74
2023-10-06T11:43:26.465Z,49.83
2023-10-06T11:44:39.190Z,50.29
2023-10-06T11:45:43.951Z,51.26
2023-10-06T11:46:54.205Z,51.70
2023-10-06T11:47:57.605Z,51.21
2023-10-06T11:49:11.371Z,51.05
2023-10-06T11:50:29.827Z,49.90
2023-10-06T11:51:41.009Z,50.40
2023-10-06T11:52:45.297Z,51.00
2023-10-06T11:53:48.599Z,51.33
2023-10-06T11:54:53.073Z,51.03
2023-10-06T11:56:31.777Z,51.87
2023-10-06T11:57:47.393Z,51.49
2023-10-06T11:58:50.799Z,49.99
2023-10-06T11:59:58.672Z,51.03
2023-10-06T12:01:01.502Z,51.82
2023-10-06T12:02:10.694Z,52.03
2023-10-06T12:03:14.110Z,51.79
2023-10-06T12:04:33.257Z,50.99
2023-10-06T12:05:37.311Z,51.01
2023-10-06T12:06:44.506Z,48.76
2023-10-06T12:07:56.829Z,49.51
2023-10-06T12:08:59.637Z,49.69
2023-10-06T12:10:04.898Z,48.32
2023-10-06T12:11:07.863Z,46.66
2023-10-06T12:12:11.037Z,47.17
2023-10-06T12:13:14.186Z,47.37
2023-10-06T12:14:17.393Z,47.40
2023-10-06T12:15:21.720Z,47.23
2023-10-06T12:16:25.452Z,47.54
2023-10-06T12:17:28.646Z,47.68
2023-10-06T12:18:32.257Z,46.81
2023-10-06T12:19:35.153Z,47.62
2023-10-06T12:20:38.078Z,48.06
2023-10-06T12:21:41.205Z,47.72
2023-10-06T12:22:45.293Z,47.74
2023-10-06T12:23:48.616Z,47.95
2023-10-06T12:24:51.577Z,47.33
2023-10-06T12:25:56.885Z,47.83
2023-10-06T12:27:00.055Z,47.89
2023-10-06T12:28:03.542Z,46.98
2023-10-06T12:29:06.974Z,47.44
2023-10-06T12:30:11.055Z,46.82
2023-10-06T12:31:14.293Z,46.98
2023-10-06T12:32:17.352Z,45.77
2023-10-06T12:33:20.369Z,45.85
2023-10-06T12:34:24.305Z,45.80
2023-10-06T12:35:30.571Z,46.39
2023-10-06T12:36:36.210Z,46.50
2023-10-06T12:37:43.140Z,47.24
2023-10-06T12:38:46.472Z,47.07
2023-10-06T12:39:53.270Z,47.80
2023-10-06T12:40:57.420Z,47.20
2023-10-06T12:42:00.942Z,47.23
2023-10-06T12:43:04.304Z,46.88
2023-10-06T12:44:10.481Z,47.51
2023-10-06T12:45:19.642Z,47.70
2023-10-06T12:46:24.149Z,46.47
2023-10-06T12:47:28.236Z,45.98
2023-10-06T12:48:39.650Z,46.30
2023-10-06T12:49:47.215Z,46.86
2023-10-06T12:50:50.271Z,45.76
2023-10-06T12:51:53.510Z,46.55
2023-10-06T12:52:56.965Z,46.04
2023-10-06T12:54:01.686Z,45.30
2023-10-06T12:55:12.021Z,45.62
2023-10-06T12:56:14.752Z,45.73
2023-10-06T12:57:17.640Z,44.85
2023-10-06T12:58:20.374Z,44.40
2023-10-06T12:59:23.893Z,44.93
2023-10-06T13:00:29.379Z,45.69
2023-10-06T13:01:33.513Z,45.18
2023-10-06T13:02:36.847Z,45.39
2023-10-06T13:03:40.201Z,45.29
2023-10-06T13:04:43.912Z,44.96
2023-10-06T13:05:47.980Z,45.34
2023-10-06T13:06:53.156Z,44.40
2023-10-06T13:07:58.906Z,45.28
2023-10-06T13:09:03.797Z,46.06
2023-10-06T13:10:09.968Z,46.00
2023-10-06T13:11:13.144Z,45.91
2023-10-06T13:12:15.923Z,46.37
2023-10-06T13:13:19.132Z,46.83
2023-10-06T13:14:22.405Z,46.23
2023-10-06T13:15:25.738Z,45.89
2023-10-06T13:16:28.875Z,45.83
2023-10-06T13:17:34.777Z,44.94
2023-10-06T13:18:38.364Z,45.44
2023-10-06T13:19:41.234Z,45.49
2023-10-06T13:20:44.836Z,45.62
2023-10-06T13:21:47.891Z,46.03
2023-10-06T13:22:51.114Z,46.07
2023-10-06T13:23:55.947Z,46.41
2023-10-06T13:24:59.051Z,47.13
2023-10-06T13:26:02.650Z,47.11
2023-10-06T13:27:09.880Z,46.64
2023-10-06T13:28:17.795Z,46.56
2023-10-06T13:29:23.631Z,47.68
2023-10-06T13:30:26.798Z,47.08
2023-10-06T13:31:30.122Z,46.66
2023-10-06T13:32:37.931Z,46.28
2023-10-06T13:33:41.367Z,46.31
2023-10-06T13:34:44.421Z,46.66
2023-10-06T13:35:49.566Z,47.36
2023-10-06T13:36:52.639Z,47.59
2023-10-06T13:37:55.565Z,48.08
2023-10-06T13:38:58.859Z,48.17
2023-10-06T13:40:01.863Z,48.91
2023-10-06T13:41:05.841Z,49.13
2023-10-06T13:42:12.656Z,48.09
2023-10-06T13:43:15.805Z,47.48
2023-10-06T13:44:20.003Z,48.18
2023-10-06T13:45:23.930Z,48.78
2023-10-06T13:46:27.163Z,48.37
2023-10-06T13:47:30.047Z,48.86
2023-10-06T13:48:33.007Z,49.57
2023-10-06T13:49:35.875Z,49.59
2023-10-06T13:50:39.202Z,48.82
2023-10-06T13:51:43.053Z,48.41
2023-10-06T13:52:47.580Z,48.05
2023-10-06T13:53:50.704Z,47.18
2023-10-06T13:54:53.513Z,48.11
2023-10-06T13:55:57.458Z,48.23
2023-10-06T13:57:01.933Z,48.09
2023-10-06T13:58:09.613Z,48.54
2023-10-06T13:59:15.736Z,48.19
2023-10-06T14:00:42.150Z,48.20
2023-10-06T14:01:46.363Z,48.29
2023-10-06T14:02:50.696Z,48.54
2023-10-06T14:03:53.909Z,48.41
2023-10-06T14:04:58.835Z,48.97
2023-10-06T14:06:04.210Z,49.58
2023-10-06T14:07:13.056Z,49.11
2023-10-06T14:08:16.035Z,49.30
2023-10-06T14:09:25.242Z,49.56
2023-10-06T14:10:28.893Z,49.44
2023-10-06T14:11:32.040Z,48.81
2023-10-06T14:12:34.892Z,49.29
2023-10-06T14:13:40.922Z,48.40
2023-10-06T14:14:46.708Z,49.22
2023-10-06T14:15:50.943Z,49.66